Houwa Maru — JL6394 — position and weather

sailwx.info

Track history (hours):
 
Tides and Currents Weather Stations Pressure Air Temp Water Temp Dewpoint Dewpoint Depression Visibility Wind Speed Wind Dir Waves Ship Positions

Houwa Maru

Last reported at 2016-Feb-09 05:27 UTC. Time now 2016-Feb-09 07:45 UTC.
Position N 34°37' E 135°09'.

Length 76 m.

Type: Ship. MMSI: 431500378.

Date/timePositionNaut miles runAvg speedWind from/ knotsBaromVisibWave heightAir tempDewpointWater temp
2016-Feb-09 05:27N 34°37' E 135°09'0 0.0
2016-Feb-09 04:21N 34°37' E 135°09'0 0.0
2016-Feb-09 03:33N 34°37' E 135°09'0 0.0
2016-Feb-09 02:27N 34°37' E 135°09'0 0.0
2016-Feb-09 01:27N 34°37' E 135°09'0 0.0
2016-Feb-09 00:33N 34°37' E 135°09'0 0.1
2016-Feb-08 23:33N 34°37' E 135°09'0 0.0
2016-Feb-08 22:27N 34°37' E 135°09'1 1.2
2016-Feb-08 21:33N 34°36' E 135°08'6 0.1
2016-Feb-06 21:33N 34°31' E 135°04'  
2016-Feb-04 01:30N 34°39' E 135°15'3 3.5
2016-Feb-04 00:30N 34°42' E 135°15'0 0.0
2016-Feb-03 17:24N 34°42' E 135°15'0 0.0
2016-Feb-03 16:24N 34°42' E 135°15'0 0.0
2016-Feb-03 14:30N 34°42' E 135°15'0 0.0
2016-Feb-03 13:12N 34°42' E 135°15'0 0.0
2016-Feb-03 12:30N 34°42' E 135°15'0 0.0
2016-Feb-03 11:18N 34°42' E 135°15'0 0.0
2016-Feb-03 10:30N 34°42' E 135°15'0 0.0
2016-Feb-03 09:24N 34°42' E 135°15'0 0.0
2016-Feb-03 08:24N 34°42' E 135°15'0 0.0
2016-Feb-03 07:30N 34°42' E 135°15'0 0.0
2016-Feb-03 05:30N 34°42' E 135°15'0 0.0
2016-Feb-03 04:24N 34°42' E 135°15'0 0.0
2016-Feb-03 03:06N 34°42' E 135°15'0 0.0
2016-Feb-03 02:30N 34°42' E 135°15'0 0.0
2016-Feb-03 01:30N 34°42' E 135°15'0 0.0
2016-Feb-03 00:30N 34°42' E 135°15'1 0.7
2016-Feb-02 23:32N 34°41' E 135°15'10 9.9
2016-Feb-02 22:32N 34°32' E 135°12'  
Track history (hours):
 
Tides and Currents Weather Stations Pressure Air Temp Water Temp Dewpoint Dewpoint Depression Visibility Wind Speed Wind Dir Waves Ship Positions

Houwa Maru

Last reported at 2016-Feb-09 05:27 UTC. Time now 2016-Feb-09 07:45 UTC.
Position N 34°37' E 135°09'.

Length 76 m.

Type: Ship. MMSI: 431500378.

Date/timePositionNaut miles runAvg speedWind from/ knotsBaromVisibWave heightAir tempDewpointWater temp
2016-Feb-09 05:27N 34°37' E 135°09'0 0.0
2016-Feb-09 04:21N 34°37' E 135°09'0 0.0
2016-Feb-09 03:33N 34°37' E 135°09'0 0.0
2016-Feb-09 02:27N 34°37' E 135°09'0 0.0
2016-Feb-09 01:27N 34°37' E 135°09'0 0.0
2016-Feb-09 00:33N 34°37' E 135°09'0 0.1
2016-Feb-08 23:33N 34°37' E 135°09'0 0.0
2016-Feb-08 22:27N 34°37' E 135°09'1 1.2
2016-Feb-08 21:33N 34°36' E 135°08'6 0.1
2016-Feb-06 21:33N 34°31' E 135°04'  
2016-Feb-04 01:30N 34°39' E 135°15'3 3.5
2016-Feb-04 00:30N 34°42' E 135°15'0 0.0
2016-Feb-03 17:24N 34°42' E 135°15'0 0.0
2016-Feb-03 16:24N 34°42' E 135°15'0 0.0
2016-Feb-03 14:30N 34°42' E 135°15'0 0.0
2016-Feb-03 13:12N 34°42' E 135°15'0 0.0
2016-Feb-03 12:30N 34°42' E 135°15'0 0.0
2016-Feb-03 11:18N 34°42' E 135°15'0 0.0
2016-Feb-03 10:30N 34°42' E 135°15'0 0.0
2016-Feb-03 09:24N 34°42' E 135°15'0 0.0
2016-Feb-03 08:24N 34°42' E 135°15'0 0.0
2016-Feb-03 07:30N 34°42' E 135°15'0 0.0
2016-Feb-03 05:30N 34°42' E 135°15'0 0.0
2016-Feb-03 04:24N 34°42' E 135°15'0 0.0
2016-Feb-03 03:06N 34°42' E 135°15'0 0.0
2016-Feb-03 02:30N 34°42' E 135°15'0 0.0
2016-Feb-03 01:30N 34°42' E 135°15'0 0.0
2016-Feb-03 00:30N 34°42' E 135°15'1 0.7
2016-Feb-02 23:32N 34°41' E 135°15'10 9.9
2016-Feb-02 22:32N 34°32' E 135°12'  

Dump ship's entire track history